Time;durP1;ratioP1;P1;durP2;ratioP2;P2;SDS_P1;SDS_P2;PMS_P1;PMS_P2;Temp;Humidity;BMP_temperature;BMP_pressure;BME280_temperature;BME280_humidity;BME280_pressure;Samples;Min_cycle;Max_cycle;Signal;HPM_P1;HPM_P2
2023/05/29 00:00:43;;;;;;;19.15;13.73;;;;;;;29.31;76.08;100695.38;5109626;27;71347;-43
2023/05/29 00:03:14;;;;;;;12.73;10.50;;;;;;;29.36;71.31;100696.44;5110764;27;66686;-44
2023/05/29 00:05:45;;;;;;;15.55;12.23;;;;;;;29.32;71.18;100686.25;5107152;27;69894;-43
2023/05/29 00:08:16;;;;;;;15.57;11.35;;;;;;;29.38;70.83;100690.78;5108878;27;65118;-44
2023/05/29 00:10:47;;;;;;;19.80;13.07;;;;;;;29.18;71.26;100644.97;5110326;27;70300;-44
2023/05/29 00:13:17;;;;;;;13.57;12.15;;;;;;;29.53;72.27;100693.22;5104357;27;66267;-44
2023/05/29 00:15:48;;;;;;;12.75;11.43;;;;;;;29.42;71.61;100656.06;5108518;27;71909;-44
2023/05/29 00:18:20;;;;;;;12.63;11.43;;;;;;;29.39;71.92;100657.31;5109262;27;66928;-44
2023/05/29 00:20:52;;;;;;;12.10;11.10;;;;;;;29.52;72.26;100667.25;5110280;27;70529;-43
2023/05/29 00:23:23;;;;;;;15.70;12.85;;;;;;;29.68;72.21;100688.38;5107111;27;66299;-44
2023/05/29 00:25:54;;;;;;;24.25;15.13;;;;;;;29.72;77.47;100692.31;5109930;27;69598;-46
2023/05/29 00:28:25;;;;;;;15.95;13.75;;;;;;;29.71;76.89;100671.72;5115866;27;67028;-47
2023/05/29 00:30:56;;;;;;;18.45;13.88;;;;;;;29.53;77.28;100652.66;5112262;27;69994;-44
2023/05/29 00:33:27;;;;;;;14.38;12.82;;;;;;;29.58;77.22;100663.66;5112903;27;65986;-45
2023/05/29 00:35:58;;;;;;;25.57;12.87;;;;;;;29.75;77.34;100689.16;5102256;27;69843;-44
2023/05/29 00:38:29;;;;;;;19.85;11.48;;;;;;;29.75;76.24;100699.97;5106104;27;66210;-45
2023/05/29 00:41:02;;;;;;;9.95;8.95;;;;;;;29.17;74.03;100592.81;5105764;27;68043;-45
2023/05/29 00:43:32;;;;;;;10.15;9.23;;;;;;;29.64;72.92;100662.00;5110138;27;65974;-45
2023/05/29 00:46:04;;;;;;;9.57;8.90;;;;;;;29.90;72.70;100696.16;5110235;27;70875;-45
2023/05/29 00:48:35;;;;;;;9.17;8.23;;;;;;;29.76;72.43;100674.63;5101596;27;65332;-46
2023/05/29 00:51:06;;;;;;;8.70;8.00;;;;;;;29.92;71.40;100704.88;5104829;27;70009;-45
2023/05/29 00:53:38;;;;;;;8.80;8.02;;;;;;;29.97;71.08;100707.75;5106854;27;66268;-46
2023/05/29 00:56:10;;;;;;;8.52;7.93;;;;;;;29.71;71.68;100679.84;5106615;27;70308;-47
2023/05/29 00:58:42;;;;;;;;;;;;;;;29.70;72.14;100713.34;5110795;27;66761;-45
2023/05/29 01:01:13;;;;;;;8.40;7.70;;;;;;;29.71;71.29;100676.31;5105272;27;69234;-45
2023/05/29 01:03:45;;;;;;;8.40;7.70;;;;;;;30.01;70.78;100719.81;5094371;27;65747;-45
2023/05/29 01:06:20;;;;;;;8.52;7.85;;;;;;;30.05;70.72;100727.25;5112312;27;43170;-45
2023/05/29 01:08:51;;;;;;;11.25;8.00;;;;;;;30.03;70.65;100713.13;5108118;27;67227;-46
2023/05/29 01:11:39;;;;;;;8.77;8.07;;;;;;;29.84;70.08;100696.00;5108207;27;71567;-45
2023/05/29 01:14:17;;;;;;;7.80;7.05;;;;;;;30.01;70.14;100709.00;5106141;27;66224;-45
2023/05/29 01:16:56;;;;;;;7.43;6.93;;;;;;;29.49;69.78;100632.53;5103342;27;69916;-47
2023/05/29 01:19:32;;;;;;;7.80;6.90;;;;;;;30.12;69.76;100738.03;5109807;27;66108;-44
2023/05/29 01:22:15;;;;;;;8.57;7.10;;;;;;;30.13;70.29;100736.97;5107887;27;70044;-45
2023/05/29 01:24:56;;;;;;;7.07;6.63;;;;;;;29.49;70.21;100638.78;5106002;27;65707;-47
2023/05/29 01:27:32;;;;;;;7.38;6.85;;;;;;;30.17;70.17;100746.34;5104148;27;70320;-45
2023/05/29 01:30:04;;;;;;;7.20;6.60;;;;;;;30.06;69.35;100733.47;5113747;27;65184;-45
2023/05/29 01:32:37;;;;;;;7.78;7.07;;;;;;;30.13;69.76;100739.69;5111319;27;69835;-45
2023/05/29 01:35:09;;;;;;;7.10;6.60;;;;;;;30.24;69.14;100752.53;5102337;27;66840;-45
2023/05/29 01:37:40;;;;;;;;;;;;;;;29.94;70.86;100748.75;5089359;27;69613;-45
2023/05/29 01:40:11;;;;;;;6.68;6.28;;;;;;;30.07;69.45;100721.63;5107905;27;66320;-45
2023/05/29 01:42:43;;;;;;;6.45;6.05;;;;;;;30.25;69.21;100737.97;5107102;27;70196;-45
2023/05/29 01:45:16;;;;;;;7.13;6.60;;;;;;;30.29;69.44;100741.06;5095535;27;66544;-46
2023/05/29 01:47:48;;;;;;;6.57;6.18;;;;;;;30.05;69.19;100693.97;5100046;27;69433;-47
2023/05/29 01:50:20;;;;;;;6.57;5.97;;;;;;;30.33;68.85;100738.75;5100620;27;65509;-46
2023/05/29 01:52:52;;;;;;;6.82;6.32;;;;;;;30.35;68.97;100725.84;5101508;27;69824;-47
2023/05/29 01:55:23;;;;;;;8.23;6.65;;;;;;;30.36;69.13;100738.31;5107435;27;65914;-45
2023/05/29 01:57:55;;;;;;;6.50;6.05;;;;;;;30.03;69.21;100691.50;5107260;27;71453;-45
2023/05/29 02:00:26;;;;;;;;;;;;;;;30.11;70.66;100725.53;5102712;27;66994;-45
2023/05/29 02:02:57;;;;;;;9.60;6.45;;;;;;;30.39;68.95;100727.03;5108633;27;70712;-46
2023/05/29 02:05:27;;;;;;;7.05;6.45;;;;;;;30.44;69.03;100724.50;5105676;27;66793;-44
2023/05/29 02:07:58;;;;;;;6.32;5.90;;;;;;;30.34;68.31;100691.69;5104845;27;71616;-45
2023/05/29 02:10:31;;;;;;;6.25;5.85;;;;;;;30.49;68.74;100706.53;5101838;27;66022;-44
2023/05/29 02:13:03;;;;;;;6.45;5.95;;;;;;;30.46;68.71;100711.59;5108484;27;70157;-45
2023/05/29 02:15:33;;;;;;;6.15;5.70;;;;;;;30.34;68.05;100672.75;5112852;27;66663;-44
2023/05/29 02:18:05;;;;;;;6.23;5.83;;;;;;;30.07;68.57;100635.09;5109644;27;70288;-45
2023/05/29 02:20:36;;;;;;;5.72;5.28;;;;;;;30.56;68.45;100706.47;5102440;27;65271;-45
2023/05/29 02:23:09;;;;;;;5.90;5.47;;;;;;;30.48;68.40;100687.84;5111921;27;69886;-44
2023/05/29 02:25:40;;;;;;;5.68;5.38;;;;;;;30.61;68.28;100714.75;5107903;27;66507;-45
2023/05/29 02:28:11;;;;;;;9.05;5.57;;;;;;;30.60;68.23;100696.88;5111942;27;69725;-46
2023/05/29 02:30:42;;;;;;;6.30;5.90;;;;;;;30.50;67.86;100680.31;5112614;27;65636;-46
2023/05/29 02:33:13;;;;;;;5.30;4.90;;;;;;;30.21;68.35;100633.91;5111584;27;70048;-47
2023/05/29 02:35:43;;;;;;;6.72;5.90;;;;;;;30.67;68.27;100703.06;5114592;27;65839;-45
2023/05/29 02:38:15;;;;;;;5.93;5.43;;;;;;;29.99;67.90;100578.56;5112016;27;69822;-46
2023/05/29 02:40:46;;;;;;;5.47;5.18;;;;;;;30.65;67.55;100691.63;5105652;27;66030;-45
2023/05/29 02:43:17;;;;;;;5.53;5.20;;;;;;;30.67;67.55;100675.13;5110491;27;71529;-45
2023/05/29 02:45:49;;;;;;;6.00;5.60;;;;;;;30.76;67.30;100678.38;5106642;27;66156;-46
2023/05/29 02:48:21;;;;;;;6.10;5.60;;;;;;;30.82;67.55;100696.50;5106122;27;69217;-45
2023/05/29 02:50:53;;;;;;;6.55;5.32;;;;;;;30.85;67.46;100682.50;5103897;27;64885;-46
2023/05/29 02:53:25;;;;;;;6.07;5.65;;;;;;;30.87;67.17;100693.91;5107740;27;70712;-45
2023/05/29 02:55:56;;;;;;;6.05;5.55;;;;;;;30.85;67.58;100683.31;5113565;27;66464;-45
2023/05/29 02:58:27;;;;;;;5.45;4.95;;;;;;;30.90;67.68;100674.53;5102238;27;70700;-45
2023/05/29 03:00:58;;;;;;;5.00;4.70;;;;;;;30.91;67.16;100681.59;5116611;27;66268;-46
2023/05/29 03:03:30;;;;;;;6.57;5.03;;;;;;;30.85;67.40;100660.84;5114610;27;70119;-46
2023/05/29 03:06:01;;;;;;;5.95;5.45;;;;;;;30.93;67.42;100683.03;5113680;27;65002;-45
2023/05/29 03:08:40;;;;;;;6.18;5.07;;;;;;;30.99;67.33;100689.41;5118762;27;70281;-45
2023/05/29 03:11:11;;;;;;;5.82;5.20;;;;;;;31.00;67.12;100680.22;5117746;27;66735;-46
2023/05/29 03:13:42;;;;;;;5.53;5.03;;;;;;;30.76;67.18;100629.63;5116930;27;69954;-45
2023/05/29 03:16:13;;;;;;;5.90;5.40;;;;;;;31.02;67.16;100678.13;5115203;27;66690;-45
2023/05/29 03:18:46;;;;;;;5.90;5.50;;;;;;;31.06;66.94;100679.31;5096868;27;69515;-49
2023/05/29 03:21:21;;;;;;;6.40;5.90;;;;;;;31.05;66.95;100669.56;5112149;27;66823;-44
2023/05/29 03:23:53;;;;;;;5.72;5.05;;;;;;;30.93;67.41;100642.41;5103141;27;70067;-46
2023/05/29 03:26:23;;;;;;;5.50;5.07;;;;;;;31.03;66.80;100657.28;5113721;27;66168;-45
2023/05/29 03:28:55;;;;;;;6.03;5.47;;;;;;;31.12;66.74;100667.59;5111842;27;70097;-46
2023/05/29 03:31:25;;;;;;;5.10;4.70;;;;;;;31.16;66.92;100663.38;5103617;27;65995;-45
2023/05/29 03:33:56;;;;;;;4.80;4.50;;;;;;;31.06;66.66;100641.38;5101585;27;69667;-45
2023/05/29 03:36:50;;;;;;;5.47;4.97;;;;;;;31.21;66.58;100664.59;5108689;27;66536;-45
2023/05/29 03:39:21;;;;;;;5.40;5.00;;;;;;;31.23;66.89;100670.56;5110370;27;70160;-46
2023/05/29 03:41:52;;;;;;;5.32;4.93;;;;;;;31.26;66.70;100664.69;5104630;27;66314;-44
2023/05/29 03:44:23;;;;;;;5.40;4.90;;;;;;;31.29;66.87;100656.13;5104924;27;69880;-45
2023/05/29 03:46:54;;;;;;;5.05;4.75;;;;;;;31.30;66.41;100652.38;5116244;27;66786;-46
2023/05/29 03:49:25;;;;;;;5.13;4.73;;;;;;;31.31;66.70;100654.00;5105868;27;70572;-45
2023/05/29 03:51:56;;;;;;;5.70;5.30;;;;;;;31.34;66.24;100658.97;5113790;27;66215;-46
2023/05/29 03:54:27;;;;;;;5.33;4.93;;;;;;;30.89;66.29;100580.78;5107208;27;69306;-45
2023/05/29 03:56:58;;;;;;;5.50;4.90;;;;;;;31.38;66.34;100660.22;5116281;27;66373;-46
2023/05/29 03:59:29;;;;;;;4.93;4.63;;;;;;;31.41;66.25;100648.91;5102230;27;70099;-44
2023/05/29 04:02:00;;;;;;;6.38;4.70;;;;;;;31.35;65.99;100644.38;5101770;27;65574;-44
2023/05/29 04:04:31;;;;;;;5.57;5.07;;;;;;;31.46;66.16;100643.63;5108667;27;69603;-46
2023/05/29 04:07:03;;;;;;;4.90;4.55;;;;;;;31.38;66.03;100633.09;5103868;27;66973;-45
2023/05/29 04:09:34;;;;;;;;;;;;;;;31.21;66.57;100653.75;5107770;27;69292;-45
2023/05/29 04:12:05;;;;;;;6.75;4.90;;;;;;;31.48;66.28;100649.66;5102092;27;67283;-44
2023/05/29 04:14:36;;;;;;;5.38;4.95;;;;;;;31.51;66.04;100651.91;5102801;27;69218;-44
2023/05/29 04:17:08;;;;;;;4.90;4.50;;;;;;;31.35;65.88;100631.66;5102869;27;66121;-46
2023/05/29 04:19:39;;;;;;;5.13;4.70;;;;;;;31.49;65.76;100648.59;5111081;27;69680;-46
2023/05/29 04:22:10;;;;;;;5.60;5.17;;;;;;;31.52;65.82;100650.84;5097314;27;65169;-45
2023/05/29 04:24:44;;;;;;;6.23;5.13;;;;;;;31.41;65.63;100620.97;5104460;27;70038;-45
2023/05/29 04:27:15;;;;;;;4.93;4.53;;;;;;;31.58;65.64;100643.66;5101968;27;66563;-45
2023/05/29 04:29:46;;;;;;;5.50;4.72;;;;;;;31.54;65.73;100627.03;5114038;27;69073;-45
2023/05/29 04:32:17;;;;;;;6.15;4.82;;;;;;;31.58;65.69;100627.41;5111764;27;65926;-45
2023/05/29 04:34:48;;;;;;;4.63;4.23;;;;;;;31.61;65.72;100627.75;5101100;27;69219;-44
2023/05/29 04:37:21;;;;;;;5.18;4.78;;;;;;;31.27;65.63;100587.78;5106009;27;67173;-45
2023/05/29 04:39:52;;;;;;;5.18;4.78;;;;;;;31.11;65.73;100541.31;5103987;27;69777;-47
2023/05/29 04:42:27;;;;;;;4.68;4.35;;;;;;;31.69;65.81;100631.22;5108191;27;65350;-45
2023/05/29 04:44:58;;;;;;;4.80;4.50;;;;;;;31.59;65.34;100610.06;5110185;27;69872;-44
2023/05/29 04:47:29;;;;;;;4.95;4.55;;;;;;;31.62;65.49;100590.63;5107606;27;66849;-45
2023/05/29 04:50:00;;;;;;;5.10;4.80;;;;;;;31.53;65.54;100579.28;5109834;27;70249;-46
2023/05/29 04:52:32;;;;;;;9.13;4.90;;;;;;;31.75;65.40;100600.44;5104127;27;65663;-44
2023/05/29 04:55:03;;;;;;;;;;;;;;;31.51;65.95;100610.38;5124734;27;70531;-47
2023/05/29 04:57:33;;;;;;;4.93;4.55;;;;;;;31.66;65.32;100586.41;5115798;27;66373;-46
2023/05/29 05:00:13;;;;;;;5.75;5.13;;;;;;;31.75;65.13;100573.31;5105979;27;70504;-46
2023/05/29 05:02:46;;;;;;;4.90;4.50;;;;;;;31.87;65.09;100579.56;5088484;27;66080;-46
2023/05/29 05:05:17;;;;;;;;;;;;;;;31.59;65.40;100578.38;5104870;27;69585;-47
2023/05/29 05:07:48;;;;;;;5.07;4.68;;;;;;;31.89;65.23;100580.16;5109105;27;66057;-45
2023/05/29 05:10:19;;;;;;;5.43;5.00;;;;;;;31.88;64.70;100569.56;5102960;27;70111;-47
2023/05/29 05:12:49;;;;;;;4.85;4.47;;;;;;;31.99;65.05;100585.88;5106583;27;66039;-45
2023/05/29 05:15:23;;;;;;;5.32;4.97;;;;;;;31.96;64.65;100566.53;5100135;27;70466;-47
2023/05/29 05:17:54;;;;;;;5.43;4.95;;;;;;;31.86;64.61;100542.66;5102760;27;65211;-46
2023/05/29 05:20:26;;;;;;;5.67;5.17;;;;;;;32.08;64.20;100555.69;5114390;27;70653;-45
2023/05/29 05:23:01;;;;;;;5.45;5.05;;;;;;;32.12;64.25;100556.84;5100582;27;66241;-45
2023/05/29 05:25:34;;;;;;;5.15;4.75;;;;;;;32.15;64.26;100556.38;5111000;27;69114;-45
2023/05/29 05:28:05;;;;;;;5.15;4.78;;;;;;;32.16;64.07;100547.19;5112221;27;65820;-48
2023/05/29 05:30:37;;;;;;;;;;;;;;;31.88;64.44;100537.84;5110310;27;69938;-44
2023/05/29 05:33:07;;;;;;;5.72;4.65;;;;;;;32.01;64.40;100513.22;5101117;27;65237;-46
2023/05/29 05:35:39;;;;;;;5.60;5.10;;;;;;;32.22;64.11;100529.94;5108806;27;69543;-45
2023/05/29 05:38:11;;;;;;;5.15;4.75;;;;;;;32.17;64.02;100513.56;5111487;27;68178;-48
2023/05/29 05:40:44;;;;;;;4.88;4.47;;;;;;;32.22;63.80;100519.09;5111724;27;70464;-48
2023/05/29 05:43:22;;;;;;;5.60;5.10;;;;;;;32.28;63.45;100512.72;5107154;27;66154;-48
2023/05/29 05:46:07;;;;;;;4.88;4.47;;;;;;;32.28;63.89;100502.66;5107205;27;69520;-45
2023/05/29 05:48:40;;;;;;;4.70;4.30;;;;;;;32.32;63.53;100503.03;5108214;27;65295;-47
2023/05/29 05:51:12;;;;;;;5.53;4.78;;;;;;;32.43;63.53;100490.47;5102063;27;69585;-47
2023/05/29 05:53:44;;;;;;;6.22;4.50;;;;;;;32.33;63.23;100472.09;5112212;27;65528;-47
2023/05/29 05:56:15;;;;;;;4.95;4.65;;;;;;;32.46;63.57;100493.59;5115766;27;69904;-46
2023/05/29 05:58:46;;;;;;;5.10;4.60;;;;;;;32.38;63.22;100491.22;5110898;27;66112;-48
2023/05/29 06:01:20;;;;;;;4.97;4.60;;;;;;;32.52;63.18;100502.66;5110699;27;69289;-46
2023/05/29 06:03:57;;;;;;;4.88;4.50;;;;;;;32.36;63.26;100471.63;5119330;27;65785;-45
2023/05/29 06:06:28;;;;;;;5.25;4.85;;;;;;;32.41;62.77;100474.44;5093471;27;70247;-46
2023/05/29 06:08:59;;;;;;;4.97;4.57;;;;;;;32.56;62.77;100503.00;5116371;27;66633;-46
2023/05/29 06:11:31;;;;;;;5.38;4.97;;;;;;;32.44;62.73;100468.53;5118496;27;69295;-45
2023/05/29 06:14:02;;;;;;;6.00;5.47;;;;;;;32.58;62.67;100495.44;5108810;27;65550;-47
2023/05/29 06:16:34;;;;;;;6.50;5.47;;;;;;;32.45;62.72;100472.88;5111843;27;69984;-44
2023/05/29 06:19:05;;;;;;;;;;;;;;;32.34;62.86;100484.59;5115977;27;65510;-45
2023/05/29 06:21:49;;;;;;;5.18;4.78;;;;;;;32.58;62.62;100481.88;5109471;27;69881;-45
2023/05/29 06:24:20;;;;;;;5.65;4.90;;;;;;;32.66;62.51;100476.06;5109108;27;65330;-48
2023/05/29 06:26:51;;;;;;;5.32;4.85;;;;;;;32.65;62.36;100474.38;5114902;27;70081;-47
2023/05/29 06:29:22;;;;;;;5.40;4.90;;;;;;;32.59;62.55;100469.94;5121215;27;65741;-45
2023/05/29 06:31:53;;;;;;;5.53;5.03;;;;;;;32.68;62.68;100476.63;5112501;27;70427;-46
2023/05/29 06:34:24;;;;;;;5.47;5.07;;;;;;;32.57;62.09;100450.34;5111862;27;65641;-48
2023/05/29 06:36:55;;;;;;;5.30;4.80;;;;;;;32.73;62.30;100455.00;5115700;27;70453;-47
2023/05/29 06:39:26;;;;;;;5.50;5.00;;;;;;;32.71;62.17;100452.53;5114151;27;66663;-47
2023/05/29 06:41:57;;;;;;;5.07;4.78;;;;;;;32.76;62.18;100442.81;5114020;27;70469;-45
2023/05/29 06:44:28;;;;;;;6.40;5.10;;;;;;;32.68;62.00;100427.72;5115166;27;66454;-46
2023/05/29 06:46:59;;;;;;;5.47;5.07;;;;;;;32.76;62.09;100453.69;5116307;27;69898;-46
2023/05/29 06:49:30;;;;;;;5.68;5.18;;;;;;;32.49;61.88;100406.22;5116186;27;66772;-46
2023/05/29 06:52:01;;;;;;;5.67;5.27;;;;;;;32.73;61.82;100444.13;5117170;27;71445;-47
2023/05/29 06:54:50;;;;;;;5.85;5.43;;;;;;;32.74;62.00;100439.53;5106790;27;66546;-46
2023/05/29 06:57:21;;;;;;;9.80;4.97;;;;;;;32.79;62.09;100445.88;5105914;27;70457;-46
2023/05/29 06:59:52;;;;;;;5.88;4.40;;;;;;;32.81;61.95;100446.44;5109140;27;66265;-45
2023/05/29 07:02:23;;;;;;;5.80;4.50;;;;;;;32.65;62.37;100420.94;5108553;27;69339;-44
2023/05/29 07:04:59;;;;;;;5.13;4.72;;;;;;;32.68;62.09;100414.16;5107622;27;66275;-45
2023/05/29 07:07:33;;;;;;;5.70;5.18;;;;;;;32.78;61.93;100425.22;5114058;27;69942;-45
2023/05/29 07:10:06;;;;;;;6.03;5.53;;;;;;;32.60;61.66;100387.41;5114125;27;66648;-46
2023/05/29 07:12:37;;;;;;;4.90;4.50;;;;;;;32.78;61.99;100414.34;5111829;27;69631;-47
2023/05/29 07:15:09;;;;;;;6.32;5.78;;;;;;;32.77;61.72;100410.00;5111043;27;65776;-46
2023/05/29 07:17:42;;;;;;;5.13;4.72;;;;;;;32.80;61.90;100417.66;5103507;27;69461;-47
2023/05/29 07:20:20;;;;;;;5.45;5.05;;;;;;;32.74;61.78;100409.66;5111190;27;65896;-47
2023/05/29 07:22:51;;;;;;;;;;;;;;;32.52;62.52;100423.94;5093943;27;69360;-46
2023/05/29 07:25:23;;;;;;;5.40;5.00;;;;;;;32.60;62.07;100395.56;5101117;27;65989;-45
2023/05/29 07:27:54;;;;;;;6.00;5.40;;;;;;;32.77;61.95;100429.00;5106683;27;70360;-46
2023/05/29 07:30:28;;;;;;;5.25;4.85;;;;;;;32.79;62.43;100437.75;5105818;27;66574;-46
2023/05/29 07:33:00;;;;;;;6.17;4.80;;;;;;;32.79;62.03;100437.75;5106954;27;69697;-46
2023/05/29 07:35:32;;;;;;;5.55;5.15;;;;;;;32.61;62.09;100413.50;5107078;27;65766;-45
2023/05/29 07:38:05;;;;;;;5.85;5.32;;;;;;;32.76;62.13;100426.53;5107033;27;70455;-45
2023/05/29 07:40:36;;;;;;;6.03;5.43;;;;;;;32.64;61.94;100413.81;5094232;27;65771;-46
2023/05/29 07:43:21;;;;;;;5.38;4.93;;;;;;;32.82;61.99;100448.13;5112625;27;70304;-45
2023/05/29 07:45:57;;;;;;;5.25;4.95;;;;;;;32.82;61.93;100455.41;5117793;27;66254;-46
2023/05/29 07:48:28;;;;;;;6.60;6.00;;;;;;;32.77;62.02;100449.91;5111675;27;69845;-45
2023/05/29 07:51:00;;;;;;;;;;;;;;;32.51;62.65;100454.84;5107536;27;66115;-43
2023/05/29 07:53:35;;;;;;;5.93;5.35;;;;;;;32.77;62.10;100458.06;5125336;27;70102;-44
2023/05/29 07:56:06;;;;;;;10.02;5.60;;;;;;;32.67;62.34;100439.69;5115347;27;66151;-44
2023/05/29 07:58:37;;;;;;;4.90;4.50;;;;;;;32.76;62.04;100453.69;5105559;27;70237;-45
2023/05/29 08:01:08;;;;;;;5.60;5.13;;;;;;;32.73;61.94;100455.00;5112235;27;65324;-45
2023/05/29 08:03:41;;;;;;;5.25;4.85;;;;;;;32.80;61.97;100463.81;5106864;27;71928;-44
2023/05/29 08:06:26;;;;;;;5.38;4.97;;;;;;;32.82;61.83;100464.41;5103786;27;66273;-45
2023/05/29 08:09:00;;;;;;;5.25;4.85;;;;;;;32.82;61.90;100464.41;5111314;27;70425;-47
2023/05/29 08:11:30;;;;;;;5.20;4.70;;;;;;;32.81;62.02;100460.03;5105622;27;65608;-45
2023/05/29 08:14:01;;;;;;;5.40;5.00;;;;;;;32.83;62.01;100462.53;5103904;27;69678;-45
2023/05/29 08:16:32;;;;;;;5.57;5.13;;;;;;;32.78;61.85;100454.28;5109161;27;65811;-43
2023/05/29 08:19:03;;;;;;;6.70;5.37;;;;;;;32.82;62.00;100447.28;5113758;27;69820;-44
2023/05/29 08:21:34;;;;;;;5.47;5.07;;;;;;;32.83;61.99;100455.19;5105313;27;65593;-44
2023/05/29 08:24:05;;;;;;;6.28;5.75;;;;;;;32.84;61.81;100454.09;5112633;27;70534;-44
2023/05/29 08:26:36;;;;;;;5.35;5.05;;;;;;;32.81;61.97;100457.31;5109190;27;65876;-43
2023/05/29 08:29:07;;;;;;;4.90;4.50;;;;;;;32.83;61.77;100460.63;5109976;27;70855;-44
2023/05/29 08:31:38;;;;;;;5.68;5.28;;;;;;;32.76;62.01;100448.25;5107399;27;66787;-44
2023/05/29 08:34:10;;;;;;;6.87;5.00;;;;;;;32.79;61.92;100458.63;5103462;27;71621;-46
2023/05/29 08:36:41;;;;;;;5.68;5.28;;;;;;;32.75;61.61;100450.16;5107153;27;65002;-46
2023/05/29 08:39:11;;;;;;;5.50;5.00;;;;;;;32.78;61.96;100457.81;5108565;27;68655;-44
2023/05/29 08:42:07;;;;;;;8.43;5.38;;;;;;;32.65;62.06;100482.53;5101655;27;66045;-44
2023/05/29 08:44:40;;;;;;;5.30;4.90;;;;;;;32.09;61.97;100370.13;5108993;27;69863;-44
2023/05/29 08:47:16;;;;;;;5.80;5.40;;;;;;;32.66;61.64;100474.16;5116186;27;65949;-44
2023/05/29 08:49:53;;;;;;;8.43;5.65;;;;;;;32.36;61.72;100421.94;5108814;27;69679;-46
2023/05/29 08:52:27;;;;;;;5.80;5.40;;;;;;;32.83;62.06;100476.91;5109075;27;66552;-45
2023/05/29 08:55:00;;;;;;;5.57;5.18;;;;;;;32.81;61.95;100487.19;5106750;27;70142;-45
2023/05/29 08:57:31;;;;;;;5.75;5.25;;;;;;;32.83;62.12;100495.13;5104256;27;66812;-47
2023/05/29 09:00:08;;;;;;;5.77;5.37;;;;;;;32.78;62.26;100498.53;5108498;27;71636;-47
2023/05/29 09:02:40;;;;;;;5.70;5.13;;;;;;;32.79;62.32;100519.22;5111312;27;66955;-44
2023/05/29 09:05:12;;;;;;;6.20;5.72;;;;;;;32.82;62.28;100507.03;5111046;27;70068;-46
2023/05/29 09:07:43;;;;;;;7.35;5.65;;;;;;;32.79;62.56;100502.94;5104474;27;65081;-45
2023/05/29 09:10:15;;;;;;;6.47;5.40;;;;;;;32.79;62.44;100502.94;5101368;27;70291;-46
2023/05/29 09:12:46;;;;;;;5.87;5.37;;;;;;;32.70;62.62;100498.94;5106423;27;68110;-45
2023/05/29 09:15:19;;;;;;;5.70;5.00;;;;;;;32.03;62.40;100391.72;5111625;27;70189;-48
2023/05/29 09:17:59;;;;;;;5.90;5.45;;;;;;;31.97;62.40;100392.66;5105094;27;65832;-47
2023/05/29 09:20:30;;;;;;;5.65;5.20;;;;;;;32.75;62.75;100531.63;5112322;27;70296;-48
2023/05/29 09:23:07;;;;;;;6.63;6.05;;;;;;;31.57;62.55;100338.38;5103592;27;65546;-46
2023/05/29 09:25:42;;;;;;;6.32;5.82;;;;;;;32.58;62.89;100500.88;5114989;27;70366;-45
2023/05/29 09:28:15;;;;;;;6.18;5.57;;;;;;;32.75;62.84;100537.06;5102323;27;66531;-46
2023/05/29 09:30:48;;;;;;;6.18;5.75;;;;;;;32.73;63.06;100525.59;5110996;27;70638;-46
2023/05/29 09:33:18;;;;;;;6.38;5.80;;;;;;;32.57;63.02;100494.63;5112665;27;66836;-47
2023/05/29 09:35:50;;;;;;;10.55;5.60;;;;;;;32.71;62.99;100514.19;5111719;27;69942;-48
2023/05/29 09:38:20;;;;;;;7.37;5.47;;;;;;;32.58;63.21;100490.03;5099164;27;65246;-46
2023/05/29 09:41:11;;;;;;;7.00;6.40;;;;;;;32.69;63.26;100508.97;5102778;27;72072;-46
2023/05/29 09:43:46;;;;;;;8.57;6.43;;;;;;;32.56;63.58;100492.13;5112792;27;66097;-50
2023/05/29 09:46:20;;;;;;;7.07;6.45;;;;;;;32.69;63.18;100524.44;5104226;27;69649;-48
2023/05/29 09:48:50;;;;;;;6.25;5.85;;;;;;;32.68;63.47;100520.06;5106099;27;65946;-46
2023/05/29 09:51:23;;;;;;;6.22;5.82;;;;;;;32.51;63.84;100497.47;5105453;27;69376;-47
2023/05/29 09:53:56;;;;;;;7.05;5.95;;;;;;;32.64;63.91;100516.19;5111587;27;66157;-48
2023/05/29 09:56:28;;;;;;;7.00;6.38;;;;;;;32.63;64.01;100509.13;5109735;27;69907;-47
2023/05/29 09:58:59;;;;;;;10.43;6.78;;;;;;;32.62;64.18;100505.56;5106567;27;65432;-46
2023/05/29 10:01:30;;;;;;;7.90;7.13;;;;;;;32.61;64.16;100511.25;5111177;27;70099;-47
2023/05/29 10:04:02;;;;;;;7.18;6.63;;;;;;;32.46;64.01;100498.22;5121093;27;66212;-47
2023/05/29 10:06:36;;;;;;;6.70;6.20;;;;;;;32.60;64.13;100525.91;5110857;27;69412;-46
2023/05/29 10:09:10;;;;;;;7.15;6.53;;;;;;;32.57;64.43;100543.50;5104907;27;66718;-47
2023/05/29 10:11:45;;;;;;;7.40;6.70;;;;;;;32.30;64.30;100516.03;5107613;27;71851;-44
2023/05/29 10:14:22;;;;;;;6.88;6.28;;;;;;;31.88;64.76;100461.91;5104781;27;65896;-45
2023/05/29 10:16:57;;;;;;;7.28;6.47;;;;;;;31.85;64.70;100465.09;5110393;27;70738;-44
2023/05/29 10:19:32;;;;;;;7.47;6.97;;;;;;;31.94;64.39;100496.25;5106832;27;65106;-46
2023/05/29 10:22:06;;;;;;;7.30;6.57;;;;;;;31.68;64.55;100470.41;5108571;27;69749;-44
2023/05/29 10:24:37;;;;;;;6.85;6.45;;;;;;;32.30;64.46;100559.44;5111394;27;66482;-45
2023/05/29 10:27:09;;;;;;;7.45;6.75;;;;;;;32.51;64.66;100592.50;5111274;27;70181;-43
2023/05/29 10:30:05;;;;;;;8.50;7.05;;;;;;;32.46;64.66;100577.75;5111263;27;66022;-46
2023/05/29 10:33:26;;;;;;;9.45;8.65;;;;;;;32.15;66.89;100584.38;5100180;27;69605;-48
2023/05/29 10:36:05;;;;;;;9.75;8.98;;;;;;;32.22;67.82;100589.66;5075690;27;65555;-47
2023/05/29 10:38:37;;;;;;;10.48;9.50;;;;;;;32.13;68.41;100581.06;5112343;27;70376;-45
2023/05/29 10:41:40;;;;;;;10.53;9.43;;;;;;;32.03;69.16;100600.63;5107004;27;66687;-45
2023/05/29 10:44:32;;;;;;;14.43;11.43;;;;;;;32.11;69.58;100606.75;5070885;27;69524;-47
2023/05/29 10:47:05;;;;;;;14.00;11.18;;;;;;;32.09;69.38;100617.03;5110495;27;66724;-45
2023/05/29 10:49:36;;;;;;;14.45;11.07;;;;;;;32.14;69.98;100619.88;5104063;27;70446;-47
2023/05/29 10:52:10;;;;;;;20.00;11.40;;;;;;;32.13;70.24;100612.78;5107639;27;66030;-48
2023/05/29 10:54:53;;;;;;;11.80;10.57;;;;;;;31.93;70.04;100584.13;5112683;27;70419;-45
2023/05/29 10:57:26;;;;;;;11.13;10.05;;;;;;;32.11;70.33;100614.91;5117661;27;65928;-46
2023/05/29 11:00:06;;;;;;;13.60;10.02;;;;;;;31.13;70.63;100462.50;5111661;27;70348;-45
2023/05/29 11:02:41;;;;;;;10.68;9.57;;;;;;;31.47;70.46;100523.28;5091177;27;66628;-46
2023/05/29 11:05:22;;;;;;;13.63;9.93;;;;;;;32.08;70.61;100615.38;5113902;27;71862;-45
2023/05/29 11:07:56;;;;;;;12.77;9.98;;;;;;;31.30;71.55;100501.41;5110865;27;66543;-46
2023/05/29 11:10:57;;;;;;;14.07;9.02;;;;;;;31.38;70.28;100500.31;5111894;27;69847;-47
2023/05/29 11:13:35;;;;;;;8.10;7.35;;;;;;;32.09;69.52;100590.72;5114196;27;66023;-49
2023/05/29 11:16:14;;;;;;;8.00;7.50;;;;;;;31.88;69.46;100556.84;5113950;27;69787;-47
2023/05/29 11:18:49;;;;;;;8.57;7.60;;;;;;;31.59;68.81;100496.19;5113915;27;66914;-48
2023/05/29 11:21:49;;;;;;;7.93;7.32;;;;;;;32.26;68.86;100609.81;5105195;27;69786;-47
2023/05/29 11:24:27;;;;;;;8.85;7.75;;;;;;;32.28;68.71;100599.56;5112180;27;64949;-47
2023/05/29 11:27:04;;;;;;;8.30;7.47;;;;;;;32.33;68.54;100610.53;5106233;27;70217;-45
2023/05/29 11:29:35;;;;;;;9.32;8.55;;;;;;;31.81;68.75;100512.72;5117072;27;66249;-46
2023/05/29 11:32:14;;;;;;;9.32;8.10;;;;;;;31.65;68.69;100483.56;5109870;27;69997;-45
2023/05/29 11:34:47;;;;;;;8.50;7.72;;;;;;;31.75;68.77;100487.34;5109338;27;66349;-47
2023/05/29 11:37:18;;;;;;;9.32;8.52;;;;;;;32.34;68.67;100582.31;5106605;27;70164;-47
2023/05/29 11:39:48;;;;;;;10.00;8.07;;;;;;;32.35;68.75;100578.56;5115181;27;66323;-46
2023/05/29 11:42:19;;;;;;;9.27;8.35;;;;;;;32.24;68.44;100576.69;5106430;27;70077;-46
2023/05/29 11:44:50;;;;;;;9.38;8.63;;;;;;;32.38;68.61;100583.50;5115283;27;66786;-45
2023/05/29 11:47:22;;;;;;;8.80;8.15;;;;;;;32.24;68.80;100566.66;5102318;27;71572;-46
2023/05/29 11:49:53;;;;;;;9.02;8.32;;;;;;;32.36;68.76;100580.22;5113014;27;65883;-48
2023/05/29 11:52:24;;;;;;;8.32;7.70;;;;;;;32.31;68.83;100582.81;5109144;27;69439;-47
2023/05/29 11:54:59;;;;;;;9.23;8.45;;;;;;;32.26;68.81;100579.97;5108368;27;66223;-48